Time;durP1;ratioP1;P1;durP2;ratioP2;P2;SDS_P1;SDS_P2;PMS_P1;PMS_P2;Temp;Humidity;BMP_temperature;BMP_pressure;BME280_temperature;BME280_humidity;BME280_pressure;Samples;Min_cycle;Max_cycle;Signal;HPM_P1;HPM_P2
2023/03/07 00:02:00;;;;;;;39.10;23.80;;;;;;;4.10;59.05;97754.00;233196;1196;138892;-72
2023/03/07 00:07:04;;;;;;;43.50;25.50;;;;;;;3.96;59.20;97753.38;231840;1197;138696;-71
2023/03/07 00:12:09;;;;;;;44.10;25.40;;;;;;;3.84;59.49;97755.80;235262;1196;139460;-71
2023/03/07 00:17:12;;;;;;;45.30;26.20;;;;;;;3.70;59.91;97758.31;235391;1193;139541;-72
2023/03/07 00:22:16;;;;;;;43.30;25.10;;;;;;;3.56;60.01;97754.52;235470;1193;139093;-70
2023/03/07 00:27:19;;;;;;;46.20;25.20;;;;;;;3.45;60.31;97756.84;235191;1197;139530;-72
2023/03/07 00:32:24;;;;;;;44.70;25.20;;;;;;;3.39;60.45;97754.22;235157;1197;138960;-71
2023/03/07 00:37:29;;;;;;;45.70;25.50;;;;;;;3.34;60.49;97753.08;235369;1195;138686;-71
2023/03/07 00:42:32;;;;;;;41.90;25.10;;;;;;;3.26;60.61;97744.73;235368;1196;138793;-70
2023/03/07 00:47:36;;;;;;;42.40;24.70;;;;;;;3.21;61.13;97743.08;235374;1193;139137;-70
2023/03/07 00:52:39;;;;;;;43.00;24.80;;;;;;;3.23;61.41;97736.19;233492;1196;139266;-70
2023/03/07 00:57:43;;;;;;;40.70;24.60;;;;;;;3.25;61.51;97730.80;235252;1197;138853;-71
2023/03/07 01:02:47;;;;;;;45.10;24.50;;;;;;;3.24;61.67;97727.17;235398;1193;139523;-70
2023/03/07 01:07:51;;;;;;;41.00;24.00;;;;;;;3.20;61.58;97720.20;235383;1196;140024;-70
2023/03/07 01:12:54;;;;;;;42.90;24.50;;;;;;;3.18;61.74;97717.31;235318;1196;139514;-70
2023/03/07 01:17:58;;;;;;;42.30;24.50;;;;;;;3.18;62.02;97712.26;235173;1193;138705;-69
2023/03/07 01:23:02;;;;;;;43.40;24.40;;;;;;;3.16;62.10;97709.53;235329;1196;139315;-70
2023/03/07 01:28:08;;;;;;;40.50;23.10;;;;;;;3.22;61.98;97704.86;233584;1197;138815;-71
2023/03/07 01:33:11;;;;;;;41.80;23.10;;;;;;;3.29;62.06;97701.98;233132;1193;139927;-71
2023/03/07 01:38:15;;;;;;;41.60;24.10;;;;;;;3.37;61.90;97699.09;231950;1197;138875;-70
2023/03/07 01:43:33;;;;;;;42.80;24.10;;;;;;;3.39;62.17;97693.92;235373;1193;138715;-70
2023/03/07 01:48:43;;;;;;;41.10;23.20;;;;;;;3.40;62.35;97689.48;235263;1196;139499;-70
2023/03/07 01:53:49;;;;;;;40.50;24.10;;;;;;;3.38;62.49;97685.55;235344;1193;139621;-71
2023/03/07 01:58:54;;;;;;;38.50;22.90;;;;;;;3.40;62.90;97683.19;233864;1198;138669;-71
2023/03/07 02:04:10;;;;;;;42.50;23.60;;;;;;;3.41;62.93;97683.65;235360;1192;138796;-71
2023/03/07 02:09:17;;;;;;;39.00;23.80;;;;;;;3.43;62.70;97682.13;235672;1193;139027;-71
2023/03/07 02:14:20;;;;;;;41.50;23.00;;;;;;;3.48;62.81;97685.19;234134;1193;139562;-71
2023/03/07 02:19:29;;;;;;;39.50;24.00;;;;;;;3.50;62.72;97685.43;235282;1193;140524;-71
2023/03/07 02:24:54;;;;;;;43.10;23.70;;;;;;;3.54;62.85;97683.98;235350;1192;138732;-71
2023/03/07 02:29:57;;;;;;;40.00;23.30;;;;;;;3.56;63.07;97682.95;235481;1193;138768;-70
2023/03/07 02:35:09;;;;;;;44.20;23.30;;;;;;;3.61;62.74;97684.47;235355;1196;139624;-71
2023/03/07 02:40:15;;;;;;;38.70;22.40;;;;;;;3.66;62.93;97686.80;234302;1193;139301;-70
2023/03/07 02:45:19;;;;;;;42.00;24.70;;;;;;;3.70;63.21;97683.82;235452;1194;140226;-70
2023/03/07 02:50:22;;;;;;;44.70;24.60;;;;;;;3.70;63.00;97683.29;235471;1192;138872;-72
2023/03/07 02:55:27;;;;;;;41.90;26.10;;;;;;;3.67;62.89;97678.86;235288;1193;139041;-71
2023/03/07 03:00:34;;;;;;;43.80;25.80;;;;;;;3.72;63.16;97679.66;231847;1193;138713;-71
2023/03/07 03:05:38;;;;;;;46.70;25.90;;;;;;;3.70;63.07;97678.17;232328;1193;139610;-70
2023/03/07 03:10:42;;;;;;;45.80;25.80;;;;;;;3.69;63.30;97680.87;234587;1197;139214;-69
2023/03/07 03:15:46;;;;;;;44.30;26.50;;;;;;;3.63;63.39;97674.17;230130;1196;139227;-70
2023/03/07 03:20:50;;;;;;;47.20;26.30;;;;;;;3.62;63.24;97673.03;232537;1196;139624;-70
2023/03/07 03:26:01;;;;;;;41.00;24.70;;;;;;;3.58;63.20;97671.84;233160;1196;141534;-71
2023/03/07 03:31:09;;;;;;;44.20;24.20;;;;;;;3.59;63.21;97669.88;234936;1196;139893;-72
2023/03/07 03:36:16;;;;;;;38.20;23.10;;;;;;;3.56;63.04;97673.14;235390;1193;139885;-71
2023/03/07 03:41:22;;;;;;;38.60;23.20;;;;;;;3.62;62.96;97674.94;233252;1199;139255;-72
2023/03/07 03:46:25;;;;;;;43.70;26.20;;;;;;;3.61;63.03;97672.54;235262;1193;138946;-72
2023/03/07 03:51:29;;;;;;;41.00;25.20;;;;;;;3.59;62.92;97673.18;235288;1193;138884;-72
2023/03/07 03:56:33;;;;;;;42.70;25.00;;;;;;;3.51;63.08;97673.95;235291;1193;139301;-71
2023/03/07 04:01:37;;;;;;;85.00;47.60;;;;;;;3.53;63.38;97674.55;229801;1193;139141;-71
2023/03/07 04:06:41;;;;;;;84.70;49.80;;;;;;;3.56;62.46;97677.00;234280;1197;139758;-72
2023/03/07 04:11:46;;;;;;;42.60;24.70;;;;;;;3.62;62.49;97680.73;230220;1199;139749;-72
2023/03/07 04:16:49;;;;;;;44.60;24.20;;;;;;;3.62;62.44;97679.69;235427;1193;139340;-73
2023/03/07 04:21:53;;;;;;;41.30;24.50;;;;;;;3.59;62.48;97680.91;232948;1192;139155;-71
2023/03/07 04:26:57;;;;;;;103.20;59.90;;;;;;;3.50;62.65;97676.50;235643;1194;138754;-71
2023/03/07 04:32:01;;;;;;;42.90;25.10;;;;;;;3.51;62.64;97675.55;234866;1193;140084;-72
2023/03/07 04:37:04;;;;;;;42.40;24.90;;;;;;;3.43;62.99;97672.50;235023;1193;138652;-71
2023/03/07 04:42:08;;;;;;;43.60;23.80;;;;;;;3.33;63.01;97671.95;235343;1192;138556;-72
2023/03/07 04:47:12;;;;;;;44.70;25.90;;;;;;;3.24;63.42;97670.73;232066;1193;138787;-72
2023/03/07 04:52:15;;;;;;;44.80;25.00;;;;;;;3.20;63.38;97667.83;234457;1193;138678;-71
2023/03/07 04:57:19;;;;;;;56.80;31.80;;;;;;;3.18;64.31;97668.41;235211;1193;139472;-71
2023/03/07 05:02:29;;;;;;;45.50;25.00;;;;;;;3.23;63.88;97669.55;235472;1193;138512;-71
2023/03/07 05:07:36;;;;;;;40.20;24.00;;;;;;;3.27;63.19;97668.78;235039;1194;139389;-71
2023/03/07 05:12:41;;;;;;;33.90;21.40;;;;;;;3.37;63.22;97670.56;235212;1193;139456;-71
2023/03/07 05:17:47;;;;;;;33.40;18.10;;;;;;;3.48;62.35;97669.41;235243;1192;139393;-70
2023/03/07 05:22:50;;;;;;;28.50;17.20;;;;;;;3.58;61.59;97668.51;235502;1192;139769;-71
2023/03/07 05:27:54;;;;;;;27.30;16.20;;;;;;;3.68;61.10;97667.24;233978;1191;139370;-71
2023/03/07 05:32:57;;;;;;;24.70;15.70;;;;;;;3.77;60.77;97667.05;235396;1193;138987;-71
2023/03/07 05:38:01;;;;;;;25.40;14.30;;;;;;;3.83;60.66;97663.08;235379;1193;138877;-72
2023/03/07 05:43:06;;;;;;;26.10;16.00;;;;;;;3.92;60.43;97664.65;235381;1193;138744;-71
2023/03/07 05:48:10;;;;;;;26.10;15.10;;;;;;;3.99;60.04;97668.79;235264;1193;139586;-72
2023/03/07 05:53:13;;;;;;;25.10;15.40;;;;;;;4.04;60.02;97670.29;234930;1193;138683;-71
2023/03/07 05:58:17;;;;;;;25.60;14.00;;;;;;;4.14;59.77;97669.20;235120;1196;139349;-71
2023/03/07 06:03:22;;;;;;;24.80;15.40;;;;;;;4.21;59.74;97666.46;235234;1193;138835;-71
2023/03/07 06:08:25;;;;;;;23.70;14.80;;;;;;;4.34;58.96;97659.05;235251;1193;139860;-72
2023/03/07 06:13:30;;;;;;;19.70;13.40;;;;;;;4.41;58.84;97664.61;235358;1193;138830;-71
2023/03/07 06:18:33;;;;;;;23.90;14.80;;;;;;;4.47;58.61;97665.82;235322;1197;139804;-71
2023/03/07 06:23:37;;;;;;;20.80;13.70;;;;;;;4.54;58.22;97662.06;235439;1192;138808;-72
2023/03/07 06:28:44;;;;;;;21.00;13.70;;;;;;;4.57;58.22;97659.95;235593;1193;138939;-71
2023/03/07 06:33:49;;;;;;;21.20;14.00;;;;;;;4.59;57.90;97660.19;234787;1196;138672;-72
2023/03/07 06:38:54;;;;;;;22.70;13.90;;;;;;;4.70;58.02;97666.23;235413;1193;138932;-72
2023/03/07 06:43:58;;;;;;;23.00;13.90;;;;;;;4.74;57.41;97662.80;235266;1193;139203;-71
2023/03/07 06:49:04;;;;;;;22.30;14.40;;;;;;;4.80;57.38;97668.78;230648;1197;138256;-71
2023/03/07 06:54:08;;;;;;;20.70;13.70;;;;;;;4.87;57.43;97669.58;232807;1193;138871;-71
2023/03/07 06:59:13;;;;;;;18.90;12.60;;;;;;;4.94;57.20;97670.34;235655;1192;141439;-70
2023/03/07 07:04:16;;;;;;;21.00;13.80;;;;;;;5.04;57.23;97669.92;235501;1192;138780;-72
2023/03/07 07:09:20;;;;;;;21.70;14.50;;;;;;;5.11;56.66;97670.73;235683;1192;138937;-72
2023/03/07 07:14:24;;;;;;;22.10;13.70;;;;;;;5.17;56.73;97665.08;235363;1193;138801;-72
2023/03/07 07:19:28;;;;;;;20.40;13.70;;;;;;;5.26;56.23;97660.27;235337;1193;139667;-72
2023/03/07 07:24:32;;;;;;;21.50;14.40;;;;;;;5.35;55.97;97663.21;235150;1193;139374;-73
2023/03/07 07:29:35;;;;;;;23.80;14.40;;;;;;;5.46;55.60;97663.25;234990;1192;138685;-73
2023/03/07 07:34:39;;;;;;;27.60;14.30;;;;;;;5.53;55.47;97661.54;232487;1193;138764;-72
2023/03/07 07:39:42;;;;;;;22.90;14.10;;;;;;;5.64;55.17;97657.35;235320;1193;138750;-72
2023/03/07 07:44:47;;;;;;;24.70;14.30;;;;;;;5.74;54.66;97649.32;235306;1193;139866;-71
2023/03/07 07:49:50;;;;;;;22.10;13.00;;;;;;;5.82;53.91;97651.79;235486;1192;138861;-72
2023/03/07 07:54:55;;;;;;;21.70;13.50;;;;;;;5.88;53.80;97649.30;235475;1192;139003;-71
2023/03/07 07:59:59;;;;;;;20.10;12.30;;;;;;;5.91;52.97;97646.63;235394;1192;138860;-71
2023/03/07 08:05:06;;;;;;;19.60;12.90;;;;;;;5.97;52.94;97649.98;235481;1193;139134;-71
2023/03/07 08:10:15;;;;;;;22.30;13.60;;;;;;;6.02;52.54;97648.38;235494;1192;139046;-71
2023/03/07 08:15:22;;;;;;;21.30;12.90;;;;;;;6.07;52.60;97642.81;235658;1194;138780;-71
2023/03/07 08:20:26;;;;;;;21.00;12.90;;;;;;;6.09;52.16;97639.86;235309;1196;138828;-72
2023/03/07 08:25:30;;;;;;;18.20;11.60;;;;;;;6.12;52.01;97632.73;235494;1193;138941;-71
2023/03/07 08:30:35;;;;;;;14.90;10.70;;;;;;;6.13;51.68;97634.46;235155;1192;138618;-71
2023/03/07 08:35:39;;;;;;;15.50;11.20;;;;;;;6.18;51.43;97630.56;235321;1193;139540;-71
2023/03/07 08:40:42;;;;;;;18.10;12.00;;;;;;;6.28;51.25;97626.95;235815;1192;140407;-71
2023/03/07 08:45:49;;;;;;;20.70;11.00;;;;;;;6.37;50.69;97626.33;235400;1193;139082;-72
2023/03/07 08:50:53;;;;;;;16.80;10.60;;;;;;;6.43;50.26;97624.55;235550;1192;139052;-72
2023/03/07 08:55:57;;;;;;;20.00;11.00;;;;;;;6.48;50.06;97621.20;235528;1191;138495;-72
2023/03/07 09:01:03;;;;;;;15.90;10.90;;;;;;;6.56;49.84;97623.81;235422;1192;138826;-72
2023/03/07 09:06:13;;;;;;;16.90;10.60;;;;;;;6.67;49.65;97617.97;235279;1193;139480;-72
2023/03/07 09:11:18;;;;;;;18.20;10.70;;;;;;;6.79;49.11;97616.89;235399;1193;138949;-72
2023/03/07 09:16:22;;;;;;;20.60;10.60;;;;;;;6.93;48.32;97618.95;235178;1192;139893;-72
2023/03/07 09:21:26;;;;;;;17.20;11.40;;;;;;;7.05;48.33;97616.14;235204;1195;139273;-72
2023/03/07 09:26:30;;;;;;;17.70;11.20;;;;;;;7.12;48.19;97610.16;232355;1196;139023;-70
2023/03/07 09:31:33;;;;;;;14.40;9.70;;;;;;;7.19;47.83;97598.40;230932;1195;138967;-71
2023/03/07 09:36:36;;;;;;;15.90;9.60;;;;;;;7.24;47.13;97596.51;235299;1194;139163;-73
2023/03/07 09:42:17;;;;;;;17.60;9.50;;;;;;;7.29;47.25;97595.52;235443;1193;139647;-72
2023/03/07 09:48:06;;;;;;;11.70;8.30;;;;;;;7.38;45.93;97589.96;235499;1193;138666;-72
2023/03/07 09:53:20;;;;;;;16.70;8.50;;;;;;;7.45;45.10;97581.91;235187;1192;139626;-72
2023/03/07 09:58:26;;;;;;;13.70;8.90;;;;;;;7.55;44.64;97571.98;235477;1192;138708;-72
2023/03/07 10:03:56;;;;;;;15.90;8.70;;;;;;;7.64;44.11;97573.95;235318;1192;138918;-71
2023/03/07 10:09:01;;;;;;;13.10;8.40;;;;;;;7.62;43.59;97575.37;235503;1193;139684;-72
2023/03/07 10:14:10;;;;;;;23.50;13.90;;;;;;;7.65;44.15;97565.58;235400;1193;138671;-73
2023/03/07 10:19:45;;;;;;;13.80;8.90;;;;;;;7.71;43.80;97564.11;235374;1193;139076;-72
2023/03/07 10:25:32;;;;;;;14.60;8.70;;;;;;;7.72;43.99;97557.30;235592;1195;138654;-72
2023/03/07 10:30:36;;;;;;;18.30;9.60;;;;;;;7.73;43.24;97563.60;235254;1193;138694;-71
2023/03/07 10:35:42;;;;;;;11.40;8.70;;;;;;;7.64;43.31;97559.15;235414;1193;138818;-72
2023/03/07 10:41:12;;;;;;;17.20;9.40;;;;;;;7.62;43.57;97546.23;235715;1193;138828;-72
2023/03/07 10:46:26;;;;;;;16.30;8.50;;;;;;;7.73;43.39;97543.61;235370;1193;138613;-72
2023/03/07 10:52:04;;;;;;;12.40;7.90;;;;;;;7.70;43.25;97523.95;235516;1192;139314;-71
2023/03/07 10:57:12;;;;;;;12.40;8.40;;;;;;;7.62;43.45;97520.08;232947;1195;138797;-72
2023/03/07 11:02:39;;;;;;;12.10;8.10;;;;;;;7.57;43.09;97511.84;235434;1193;138799;-72
2023/03/07 11:07:43;;;;;;;11.60;8.20;;;;;;;7.49;42.74;97508.41;231345;1196;138662;-72
2023/03/07 11:12:47;;;;;;;12.20;8.40;;;;;;;7.41;42.86;97503.48;233753;1195;139361;-72
2023/03/07 11:17:51;;;;;;;10.60;7.50;;;;;;;7.39;42.82;97497.13;234222;1193;139310;-73
2023/03/07 11:23:17;;;;;;;16.30;8.40;;;;;;;7.38;42.88;97494.55;234369;1193;139016;-72
2023/03/07 11:28:32;;;;;;;13.80;8.20;;;;;;;7.41;42.73;97493.11;232778;1193;139061;-72
2023/03/07 11:33:35;;;;;;;13.30;8.20;;;;;;;7.35;42.62;97482.27;235273;1192;138412;-72
2023/03/07 11:38:52;;;;;;;13.40;8.40;;;;;;;7.28;43.05;97475.36;235458;1195;139172;-73
2023/03/07 11:44:13;;;;;;;13.10;8.20;;;;;;;7.32;42.99;97471.84;235366;1192;138970;-72
2023/03/07 11:49:32;;;;;;;12.60;8.60;;;;;;;7.44;43.50;97466.06;235319;1193;138912;-72
2023/03/07 11:54:48;;;;;;;12.60;7.90;;;;;;;7.68;43.06;97465.67;234558;1193;138746;-72
2023/03/07 11:59:57;;;;;;;13.80;8.40;;;;;;;7.65;42.96;97450.36;235332;1193;138893;-72
2023/03/07 12:05:37;;;;;;;12.60;8.40;;;;;;;7.62;42.88;97454.81;235629;1196;138868;-73
2023/03/07 12:11:05;;;;;;;13.40;7.80;;;;;;;7.57;43.24;97444.77;235315;1193;138966;-72
2023/03/07 12:16:30;;;;;;;15.10;8.00;;;;;;;7.62;43.25;97446.70;235214;1196;138444;-72
2023/03/07 12:21:51;;;;;;;13.20;8.40;;;;;;;7.67;42.76;97451.98;235416;1195;139755;-73
2023/03/07 12:26:57;;;;;;;11.90;8.30;;;;;;;7.69;43.03;97443.86;235269;1196;139560;-73
2023/03/07 12:32:07;;;;;;;13.60;8.60;;;;;;;7.78;43.10;97453.23;235467;1193;224028;-73
2023/03/07 12:37:19;;;;;;;15.40;9.50;;;;;;;7.78;42.85;97447.78;235387;1193;139061;-72
2023/03/07 12:42:40;;;;;;;14.20;8.80;;;;;;;7.81;43.09;97441.73;235429;1192;139012;-73
2023/03/07 12:47:57;;;;;;;17.20;8.80;;;;;;;7.86;43.55;97432.90;235453;1195;138911;-73
2023/03/07 12:53:15;;;;;;;13.40;9.10;;;;;;;7.93;43.49;97430.94;235683;1192;139107;-73
2023/03/07 12:58:37;;;;;;;13.70;9.10;;;;;;;8.01;43.44;97424.84;235404;1192;138948;-72
2023/03/07 13:03:55;;;;;;;11.80;8.50;;;;;;;8.13;43.01;97421.79;235405;1193;138874;-73
2023/03/07 13:09:02;;;;;;;15.10;8.90;;;;;;;8.25;43.25;97417.05;235428;1192;138618;-72
2023/03/07 13:14:29;;;;;;;15.50;8.70;;;;;;;8.30;43.25;97420.91;235457;1196;139477;-73
2023/03/07 13:19:35;;;;;;;;;;;;;;;8.34;43.14;97411.98;235383;1192;138850;-72
2023/03/07 13:24:41;;;;;;;13.80;8.50;;;;;;;8.44;42.44;97402.56;235420;1193;125953;-73
2023/03/07 13:30:10;;;;;;;16.40;8.90;;;;;;;8.49;42.37;97395.80;235369;1193;138545;-73
2023/03/07 13:35:27;;;;;;;17.80;8.50;;;;;;;8.53;42.35;97400.21;235249;1195;138494;-73
2023/03/07 13:40:42;;;;;;;14.30;8.50;;;;;;;8.60;42.26;97403.36;235315;1192;138578;-73
2023/03/07 13:45:51;;;;;;;12.80;8.30;;;;;;;8.58;41.73;97397.23;235192;1193;138735;-71
2023/03/07 13:58:16;;;;;;;14.70;9.00;;;;;;;8.35;42.50;97390.32;235319;1194;138561;-69
2023/03/07 14:03:28;;;;;;;16.10;9.60;;;;;;;8.35;42.61;97385.94;235406;1196;140058;-73
2023/03/07 14:08:34;;;;;;;12.40;9.20;;;;;;;8.31;43.09;97381.80;235259;1195;139340;-70
2023/03/07 14:13:44;;;;;;;13.30;9.10;;;;;;;8.27;43.04;97381.58;235504;1193;138582;-70
2023/03/07 14:18:53;;;;;;;15.80;9.70;;;;;;;8.23;43.15;97375.38;235259;1192;139424;-71
2023/03/07 14:24:11;;;;;;;14.90;9.90;;;;;;;8.24;43.30;97383.25;235451;1193;139204;-70
2023/03/07 14:29:21;;;;;;;16.80;10.20;;;;;;;8.24;43.40;97370.17;235358;1194;138632;-69
2023/03/07 14:34:34;;;;;;;22.50;10.10;;;;;;;8.22;43.59;97365.58;235303;1192;139362;-71
2023/03/07 14:40:07;;;;;;;17.00;10.10;;;;;;;8.27;43.93;97357.42;235445;1193;139131;-71
2023/03/07 14:45:27;;;;;;;16.70;10.00;;;;;;;8.35;43.53;97356.25;235140;1192;140260;-71
2023/03/07 14:50:31;;;;;;;15.40;9.00;;;;;;;8.35;43.25;97359.07;235335;1196;139088;-70
2023/03/07 14:55:38;;;;;;;16.60;9.90;;;;;;;8.34;43.43;97354.56;235360;1195;138480;-69
2023/03/07 15:00:42;;;;;;;18.50;9.20;;;;;;;8.31;43.39;97346.67;235316;1192;139402;-70
2023/03/07 15:05:47;;;;;;;14.00;9.00;;;;;;;8.28;43.26;97349.18;235571;1195;139110;-70
2023/03/07 15:11:01;;;;;;;16.70;9.40;;;;;;;8.22;43.28;97342.25;235086;1192;139350;-70
2023/03/07 15:16:11;;;;;;;15.20;10.20;;;;;;;8.20;43.49;97337.98;235403;1192;138783;-70
2023/03/07 15:21:25;;;;;;;15.10;9.90;;;;;;;8.19;43.64;97339.66;234977;1193;139549;-69
2023/03/07 15:26:30;;;;;;;18.00;10.10;;;;;;;8.20;43.79;97332.70;235371;1194;138920;-69
2023/03/07 15:31:58;;;;;;;15.80;9.40;;;;;;;8.26;44.01;97325.89;235259;1193;139769;-69
2023/03/07 15:37:27;;;;;;;13.80;9.30;;;;;;;8.28;44.15;97330.44;235408;1193;138949;-70
2023/03/07 15:42:31;;;;;;;17.10;9.40;;;;;;;8.37;43.76;97319.56;235290;1195;140114;-69
2023/03/07 15:47:35;;;;;;;13.30;8.80;;;;;;;8.43;43.28;97322.44;235357;1193;139628;-69
2023/03/07 15:52:39;;;;;;;13.90;9.00;;;;;;;8.46;42.94;97322.73;235290;1195;139497;-69
2023/03/07 15:57:55;;;;;;;14.80;8.80;;;;;;;8.44;42.76;97321.63;235005;1195;139501;-69
2023/03/07 16:11:05;;;;;;;15.30;8.30;;;;;;;8.47;42.71;97308.86;234614;1195;138757;-70
2023/03/07 16:16:12;;;;;;;15.00;8.40;;;;;;;8.43;42.76;97312.38;235297;1195;138942;-70
2023/03/07 16:21:16;;;;;;;13.30;8.40;;;;;;;8.39;42.52;97314.27;235291;1193;138770;-70
2023/03/07 16:26:22;;;;;;;14.50;9.30;;;;;;;8.37;42.85;97313.71;235382;1193;139359;-70
2023/03/07 16:31:25;;;;;;;14.90;8.90;;;;;;;8.36;42.31;97306.02;235203;1196;138563;-69
2023/03/07 16:36:29;;;;;;;16.20;9.60;;;;;;;8.29;42.53;97303.88;235144;1193;138716;-70
2023/03/07 16:41:36;;;;;;;14.60;10.00;;;;;;;8.22;42.78;97302.34;235525;1194;139489;-70
2023/03/07 16:46:40;;;;;;;18.50;10.20;;;;;;;8.15;42.92;97301.30;235278;1193;139868;-69
2023/03/07 16:51:46;;;;;;;15.00;9.60;;;;;;;8.10;43.12;97306.28;235232;1194;139942;-69
2023/03/07 16:57:13;;;;;;;19.80;10.20;;;;;;;8.05;43.33;97311.27;235170;1193;139523;-70
2023/03/07 17:02:19;;;;;;;17.30;10.10;;;;;;;8.04;43.51;97315.47;235409;1196;138778;-69
2023/03/07 17:07:22;;;;;;;16.60;10.60;;;;;;;8.03;43.52;97316.55;235330;1196;138899;-70
2023/03/07 17:12:26;;;;;;;17.70;10.10;;;;;;;8.02;43.77;97318.04;235168;1193;139622;-70
2023/03/07 17:17:32;;;;;;;16.70;11.30;;;;;;;8.00;44.09;97317.84;235392;1196;138964;-69
2023/03/07 17:22:36;;;;;;;17.60;10.70;;;;;;;8.01;44.07;97317.80;235453;1194;138638;-69
2023/03/07 17:27:50;;;;;;;21.30;11.50;;;;;;;8.02;44.24;97319.14;235372;1196;139333;-70
2023/03/07 17:32:53;;;;;;;16.90;11.00;;;;;;;8.02;44.31;97322.45;235395;1193;139605;-71
2023/03/07 17:37:57;;;;;;;19.30;11.30;;;;;;;7.99;44.27;97324.85;235403;1193;139504;-71
2023/03/07 17:43:02;;;;;;;18.00;12.10;;;;;;;7.99;44.30;97322.17;235355;1194;244764;-71
2023/03/07 17:48:06;;;;;;;16.90;10.50;;;;;;;7.98;44.43;97316.95;235246;1196;140191;-71
2023/03/07 17:53:09;;;;;;;17.90;12.00;;;;;;;7.94;44.48;97316.63;235401;1192;138688;-71
2023/03/07 17:58:12;;;;;;;17.00;11.70;;;;;;;7.90;44.55;97312.84;235330;1196;140298;-71
2023/03/07 18:03:16;;;;;;;20.70;13.00;;;;;;;7.86;44.82;97310.71;232494;1193;138957;-71
2023/03/07 18:08:19;;;;;;;23.00;14.50;;;;;;;7.81;45.11;97302.56;235265;1193;139230;-72
2023/03/07 18:13:23;;;;;;;24.70;14.60;;;;;;;7.74;45.63;97305.94;235309;1193;138657;-71
2023/03/07 18:18:31;;;;;;;24.60;14.60;;;;;;;7.68;46.10;97298.14;235378;1196;139401;-71
2023/03/07 18:23:35;;;;;;;25.10;14.40;;;;;;;7.64;46.46;97292.62;235294;1193;139498;-71
2023/03/07 18:28:40;;;;;;;26.50;16.00;;;;;;;7.63;46.71;97290.81;235396;1194;139382;-71
2023/03/07 18:33:46;;;;;;;28.70;15.10;;;;;;;7.64;47.07;97287.86;235260;1197;139353;-71
2023/03/07 18:38:50;;;;;;;26.50;15.80;;;;;;;7.58;47.47;97288.67;235190;1193;138796;-71
2023/03/07 18:43:55;;;;;;;26.80;16.20;;;;;;;7.52;47.87;97284.02;235268;1193;139343;-71
2023/03/07 18:49:48;;;;;;;23.20;14.70;;;;;;;7.51;48.02;97280.79;222108;191;666349;-67
2023/03/07 18:54:51;;;;;;;28.70;16.30;;;;;;;7.47;48.29;97277.54;223501;185;136729;-70
2023/03/07 18:59:55;;;;;;;24.50;15.80;;;;;;;7.48;48.40;97281.36;223786;183;144967;-71
2023/03/07 19:05:02;;;;;;;32.50;17.80;;;;;;;7.48;48.45;97277.09;223650;182;141061;-72
2023/03/07 19:10:40;;;;;;;25.00;16.30;;;;;;;7.50;48.50;97277.15;223734;183;135924;-69
2023/03/07 19:16:53;;;;;;;30.10;16.20;;;;;;;7.49;48.64;97277.44;223749;183;144199;-67
2023/03/07 19:22:39;;;;;;;24.00;16.00;;;;;;;7.49;48.66;97277.55;223765;183;138379;-66
2023/03/07 19:28:04;;;;;;;28.80;16.60;;;;;;;7.51;48.64;97276.16;223730;182;136826;-69
2023/03/07 19:33:19;;;;;;;30.50;16.80;;;;;;;7.55;48.61;97269.70;223628;182;144422;-68
2023/03/07 19:38:41;;;;;;;26.20;16.00;;;;;;;7.55;48.57;97266.80;223693;182;138538;-67
2023/03/07 19:43:46;;;;;;;26.30;16.20;;;;;;;7.54;48.58;97262.70;223643;182;136847;-69
2023/03/07 19:49:06;;;;;;;27.00;16.20;;;;;;;7.55;48.69;97263.11;223549;180;145757;-72
2023/03/07 19:54:19;;;;;;;27.80;17.50;;;;;;;7.57;48.57;97259.66;223629;182;138787;-70
2023/03/07 19:59:43;;;;;;;26.60;16.00;;;;;;;7.64;48.54;97265.99;223767;183;136945;-68
2023/03/07 20:04:54;;;;;;;84.70;48.90;;;;;;;7.70;48.56;97264.33;223654;183;145860;-66
2023/03/07 20:10:28;;;;;;;30.70;17.60;;;;;;;7.82;48.52;97261.69;221298;193;667582;-71
2023/03/07 20:15:39;;;;;;;25.80;16.40;;;;;;;7.80;48.22;97262.58;223845;181;136206;-68
2023/03/07 20:20:42;;;;;;;25.30;15.80;;;;;;;7.79;48.23;97259.67;223836;181;143724;-74
2023/03/07 20:26:28;;;;;;;25.60;17.20;;;;;;;7.79;48.61;97252.81;223860;181;138919;-70
2023/03/07 20:31:49;;;;;;;29.50;15.60;;;;;;;7.80;48.60;97239.49;223697;181;136604;-71
2023/03/07 20:37:08;;;;;;;61.00;44.90;;;;;;;7.83;48.48;97240.60;223713;181;144247;-67
2023/03/07 20:42:15;;;;;;;46.60;32.00;;;;;;;7.88;48.65;97235.49;223769;181;138526;-68
2023/03/07 20:47:20;;;;;;;31.30;18.30;;;;;;;7.91;48.50;97228.88;223806;181;136177;-67
2023/03/07 20:52:27;;;;;;;31.50;17.60;;;;;;;7.95;48.77;97225.73;223778;182;144189;-72
2023/03/07 20:57:40;;;;;;;27.40;16.40;;;;;;;8.00;48.20;97228.50;223712;181;138539;-67
2023/03/07 21:02:46;;;;;;;24.10;15.60;;;;;;;7.97;47.95;97228.22;223697;181;151083;-68
2023/03/07 21:08:20;;;;;;;24.50;15.60;;;;;;;7.91;47.90;97233.10;223621;182;145788;-67
2023/03/07 21:13:34;;;;;;;23.70;14.80;;;;;;;7.90;48.01;97230.60;223742;181;138856;-69
2023/03/07 21:18:41;;;;;;;27.20;15.30;;;;;;;7.89;48.03;97224.45;223763;182;137165;-69
2023/03/07 21:23:55;;;;;;;24.10;14.40;;;;;;;7.89;47.97;97216.55;223650;183;147771;-68
2023/03/07 21:29:36;;;;;;;29.70;15.10;;;;;;;7.89;47.93;97212.98;223656;182;140048;-67
2023/03/07 21:34:55;;;;;;;27.40;14.30;;;;;;;7.90;47.82;97216.30;223845;182;136687;-68
2023/03/07 21:40:01;;;;;;;20.50;14.50;;;;;;;7.88;48.11;97212.36;223652;183;145085;-68
2023/03/07 21:45:26;;;;;;;27.60;14.90;;;;;;;7.89;48.17;97213.05;223751;183;139473;-69
2023/03/07 21:50:54;;;;;;;18.40;10.90;;;;;;;7.92;47.84;97209.73;223724;183;137172;-69
2023/03/07 21:56:22;;;;;;;19.80;9.60;;;;;;;8.04;47.46;97209.27;223789;183;146029;-68
2023/03/07 22:01:29;;;;;;;16.10;9.80;;;;;;;8.16;47.24;97212.21;223630;183;138959;-70
2023/03/07 22:06:34;;;;;;;16.00;9.20;;;;;;;8.24;46.97;97209.77;223800;182;136793;-70
2023/03/07 22:11:39;;;;;;;16.70;9.60;;;;;;;8.30;46.85;97207.52;223770;183;146841;-69
2023/03/07 22:16:46;;;;;;;13.80;9.00;;;;;;;8.34;46.91;97206.71;223664;183;138512;-67
2023/03/07 22:21:56;;;;;;;15.70;9.70;;;;;;;8.36;46.83;97200.34;223632;183;137334;-68
2023/03/07 22:27:03;;;;;;;16.10;9.80;;;;;;;8.40;46.96;97199.67;223744;183;146501;-71
2023/03/07 22:32:10;;;;;;;14.70;9.20;;;;;;;8.41;47.07;97192.71;223755;183;138852;-72
2023/03/07 22:37:14;;;;;;;17.50;8.50;;;;;;;8.42;47.40;97189.45;223636;182;137237;-67
2023/03/07 22:42:24;;;;;;;13.90;8.70;;;;;;;8.43;47.62;97192.14;223678;183;146030;-69
2023/03/07 22:47:29;;;;;;;14.00;9.00;;;;;;;8.43;47.86;97189.70;223701;182;138540;-68
2023/03/07 22:52:41;;;;;;;15.60;10.00;;;;;;;8.46;48.01;97185.72;223623;183;137057;-71
2023/03/07 22:58:18;;;;;;;14.50;9.50;;;;;;;8.43;48.26;97184.94;223647;182;146265;-70
2023/03/07 23:03:30;;;;;;;14.90;9.10;;;;;;;8.42;48.40;97183.77;223737;183;139938;-69
2023/03/07 23:08:35;;;;;;;14.20;9.60;;;;;;;8.41;48.62;97187.08;223672;183;136544;-68
2023/03/07 23:13:52;;;;;;;16.50;9.40;;;;;;;8.42;48.79;97187.83;223595;182;145513;-67
2023/03/07 23:18:57;;;;;;;14.20;9.30;;;;;;;8.41;48.88;97183.19;223698;183;138749;-71
2023/03/07 23:24:03;;;;;;;15.30;9.40;;;;;;;8.40;48.86;97184.86;223794;182;137112;-71
2023/03/07 23:29:08;;;;;;;15.50;9.70;;;;;;;8.41;49.04;97178.23;223683;182;145729;-70
2023/03/07 23:34:16;;;;;;;14.70;9.20;;;;;;;8.41;49.02;97187.91;223780;183;139445;-71
2023/03/07 23:39:30;;;;;;;;;;;;;;;8.39;49.10;97194.98;223806;183;136692;-75
2023/03/07 23:44:38;;;;;;;16.00;9.00;;;;;;;8.37;49.23;97202.58;223888;181;145937;-70
2023/03/07 23:49:42;;;;;;;14.90;9.40;;;;;;;8.35;49.21;97202.20;223667;182;138058;-70
2023/03/07 23:54:52;;;;;;;15.00;8.90;;;;;;;8.36;49.36;97204.23;223992;182;136689;-75